Terminal Aerodrome Forecast
Issued by NWS Sioux Falls, SD

Home | Current Version | Previous Version | Graphics & Text | Print | Product List | Glossary On
Versions: 1 2 3 4 5 6 7 8 9 10 11 12 13 14 15 16
000
FTUS43 KFSD 251500 AAA
TAFFSD
TAF AMD
KFSD 251544Z 2516/2612 32009KT P6SM SCT100 BKN250
     FM260400 34004KT P6SM SCT070 BKN200
     FM260700 03008KT P6SM BKN080=

USA.gov is the U.S. government's official web portal to all federal, state and local government web resources and services.